sensor_id;sensor_type;location;lat;lon;timestamp;P1;durP1;ratioP1;P2;durP2;ratioP2
11879;SDS011;5999;43.256;27.816;2022-11-15T00:02:05;11.73;;;7.57;;
11879;SDS011;5999;43.256;27.816;2022-11-15T00:04:32;11.07;;;6.70;;
11879;SDS011;5999;43.256;27.816;2022-11-15T00:06:59;10.97;;;6.67;;
11879;SDS011;5999;43.256;27.816;2022-11-15T00:09:26;12.17;;;7.23;;
11879;SDS011;5999;43.256;27.816;2022-11-15T00:11:53;9.77;;;6.70;;
11879;SDS011;5999;43.256;27.816;2022-11-15T00:14:19;10.80;;;6.50;;
11879;SDS011;5999;43.256;27.816;2022-11-15T00:16:47;11.07;;;7.23;;
11879;SDS011;5999;43.256;27.816;2022-11-15T00:19:15;11.83;;;6.97;;
11879;SDS011;5999;43.256;27.816;2022-11-15T00:21:42;11.97;;;6.20;;
11879;SDS011;5999;43.256;27.816;2022-11-15T00:24:10;10.33;;;6.27;;
11879;SDS011;5999;43.256;27.816;2022-11-15T00:26:37;11.10;;;6.27;;
11879;SDS011;5999;43.256;27.816;2022-11-15T00:29:04;10.47;;;6.07;;
11879;SDS011;5999;43.256;27.816;2022-11-15T00:31:31;13.30;;;6.67;;
11879;SDS011;5999;43.256;27.816;2022-11-15T00:33:58;9.13;;;5.97;;
11879;SDS011;5999;43.256;27.816;2022-11-15T00:36:26;7.93;;;5.73;;
11879;SDS011;5999;43.256;27.816;2022-11-15T00:38:52;8.80;;;5.80;;
11879;SDS011;5999;43.256;27.816;2022-11-15T00:41:21;8.57;;;6.30;;
11879;SDS011;5999;43.256;27.816;2022-11-15T00:43:48;10.40;;;6.30;;
11879;SDS011;5999;43.256;27.816;2022-11-15T00:46:16;11.07;;;6.90;;
11879;SDS011;5999;43.256;27.816;2022-11-15T00:48:43;8.27;;;5.80;;
11879;SDS011;5999;43.256;27.816;2022-11-15T00:51:10;8.73;;;5.77;;
11879;SDS011;5999;43.256;27.816;2022-11-15T00:53:38;9.10;;;6.13;;
11879;SDS011;5999;43.256;27.816;2022-11-15T00:56:05;8.83;;;6.17;;
11879;SDS011;5999;43.256;27.816;2022-11-15T00:58:32;8.53;;;5.80;;
11879;SDS011;5999;43.256;27.816;2022-11-15T01:01:05;9.33;;;5.73;;
11879;SDS011;5999;43.256;27.816;2022-11-15T01:03:32;9.10;;;6.10;;
11879;SDS011;5999;43.256;27.816;2022-11-15T01:05:59;8.43;;;6.03;;
11879;SDS011;5999;43.256;27.816;2022-11-15T01:08:27;8.67;;;6.30;;
11879;SDS011;5999;43.256;27.816;2022-11-15T01:10:54;8.40;;;5.93;;
11879;SDS011;5999;43.256;27.816;2022-11-15T01:13:25;10.30;;;6.07;;
11879;SDS011;5999;43.256;27.816;2022-11-15T01:15:55;9.77;;;6.87;;
11879;SDS011;5999;43.256;27.816;2022-11-15T01:18:22;8.83;;;6.63;;
11879;SDS011;5999;43.256;27.816;2022-11-15T01:20:49;9.70;;;6.63;;
11879;SDS011;5999;43.256;27.816;2022-11-15T01:23:16;10.40;;;7.00;;
11879;SDS011;5999;43.256;27.816;2022-11-15T01:25:42;9.83;;;6.47;;
11879;SDS011;5999;43.256;27.816;2022-11-15T01:28:10;9.63;;;6.57;;
11879;SDS011;5999;43.256;27.816;2022-11-15T01:30:37;8.87;;;6.20;;
11879;SDS011;5999;43.256;27.816;2022-11-15T01:33:04;8.43;;;6.03;;
11879;SDS011;5999;43.256;27.816;2022-11-15T01:35:31;8.73;;;6.60;;
11879;SDS011;5999;43.256;27.816;2022-11-15T01:37:58;10.53;;;7.37;;
11879;SDS011;5999;43.256;27.816;2022-11-15T01:40:25;10.43;;;6.57;;
11879;SDS011;5999;43.256;27.816;2022-11-15T01:42:52;9.30;;;6.60;;
11879;SDS011;5999;43.256;27.816;2022-11-15T01:45:19;10.40;;;6.60;;
11879;SDS011;5999;43.256;27.816;2022-11-15T01:47:49;10.53;;;7.03;;
11879;SDS011;5999;43.256;27.816;2022-11-15T01:50:19;11.03;;;7.00;;
11879;SDS011;5999;43.256;27.816;2022-11-15T01:52:52;9.30;;;7.13;;
11879;SDS011;5999;43.256;27.816;2022-11-15T01:55:19;10.97;;;7.40;;
11879;SDS011;5999;43.256;27.816;2022-11-15T01:57:49;11.53;;;7.20;;
11879;SDS011;5999;43.256;27.816;2022-11-15T02:00:20;10.03;;;7.33;;
11879;SDS011;5999;43.256;27.816;2022-11-15T02:02:46;9.97;;;7.20;;
11879;SDS011;5999;43.256;27.816;2022-11-15T02:05:14;9.70;;;6.60;;
11879;SDS011;5999;43.256;27.816;2022-11-15T02:07:41;10.07;;;6.93;;
11879;SDS011;5999;43.256;27.816;2022-11-15T02:10:10;8.77;;;6.37;;
11879;SDS011;5999;43.256;27.816;2022-11-15T02:12:39;9.83;;;6.90;;
11879;SDS011;5999;43.256;27.816;2022-11-15T02:15:06;9.60;;;6.57;;
11879;SDS011;5999;43.256;27.816;2022-11-15T02:17:40;11.40;;;7.30;;
11879;SDS011;5999;43.256;27.816;2022-11-15T02:20:35;8.93;;;6.53;;
11879;SDS011;5999;43.256;27.816;2022-11-15T02:23:19;9.47;;;6.60;;
11879;SDS011;5999;43.256;27.816;2022-11-15T02:26:17;8.93;;;6.30;;
11879;SDS011;5999;43.256;27.816;2022-11-15T02:29:05;9.20;;;5.83;;
11879;SDS011;5999;43.256;27.816;2022-11-15T02:31:38;10.67;;;7.07;;
11879;SDS011;5999;43.256;27.816;2022-11-15T02:34:15;8.97;;;6.17;;
11879;SDS011;5999;43.256;27.816;2022-11-15T02:36:54;8.97;;;6.07;;
11879;SDS011;5999;43.256;27.816;2022-11-15T02:39:32;9.67;;;6.70;;
11879;SDS011;5999;43.256;27.816;2022-11-15T02:42:09;9.80;;;6.47;;
11879;SDS011;5999;43.256;27.816;2022-11-15T02:44:54;8.03;;;6.10;;
11879;SDS011;5999;43.256;27.816;2022-11-15T02:47:28;10.93;;;6.43;;
11879;SDS011;5999;43.256;27.816;2022-11-15T02:49:59;10.37;;;6.33;;
11879;SDS011;5999;43.256;27.816;2022-11-15T02:52:28;9.10;;;5.97;;
11879;SDS011;5999;43.256;27.816;2022-11-15T02:54:55;8.23;;;5.60;;
11879;SDS011;5999;43.256;27.816;2022-11-15T02:57:26;10.73;;;6.80;;
11879;SDS011;5999;43.256;27.816;2022-11-15T03:00:06;9.23;;;6.30;;
11879;SDS011;5999;43.256;27.816;2022-11-15T03:05:41;8.60;;;5.33;;
11879;SDS011;5999;43.256;27.816;2022-11-15T03:08:17;8.77;;;5.87;;
11879;SDS011;5999;43.256;27.816;2022-11-15T03:10:55;11.50;;;6.77;;
11879;SDS011;5999;43.256;27.816;2022-11-15T03:13:30;9.17;;;5.33;;
11879;SDS011;5999;43.256;27.816;2022-11-15T03:16:06;8.37;;;5.77;;
11879;SDS011;5999;43.256;27.816;2022-11-15T03:18:40;9.03;;;5.07;;
11879;SDS011;5999;43.256;27.816;2022-11-15T03:21:11;6.97;;;4.73;;
11879;SDS011;5999;43.256;27.816;2022-11-15T03:23:40;8.27;;;5.53;;
11879;SDS011;5999;43.256;27.816;2022-11-15T03:26:09;9.07;;;5.67;;
11879;SDS011;5999;43.256;27.816;2022-11-15T03:28:40;9.50;;;6.43;;
11879;SDS011;5999;43.256;27.816;2022-11-15T03:31:13;9.77;;;6.20;;
11879;SDS011;5999;43.256;27.816;2022-11-15T03:34:00;11.03;;;6.07;;
11879;SDS011;5999;43.256;27.816;2022-11-15T03:36:33;8.20;;;5.37;;
11879;SDS011;5999;43.256;27.816;2022-11-15T03:39:02;8.13;;;5.90;;
11879;SDS011;5999;43.256;27.816;2022-11-15T03:41:35;7.90;;;5.30;;
11879;SDS011;5999;43.256;27.816;2022-11-15T03:44:08;9.63;;;5.80;;
11879;SDS011;5999;43.256;27.816;2022-11-15T03:46:40;8.50;;;5.57;;
11879;SDS011;5999;43.256;27.816;2022-11-15T03:49:14;9.17;;;5.77;;
11879;SDS011;5999;43.256;27.816;2022-11-15T03:51:46;9.23;;;5.70;;
11879;SDS011;5999;43.256;27.816;2022-11-15T03:54:13;16.27;;;9.20;;
11879;SDS011;5999;43.256;27.816;2022-11-15T03:56:40;13.57;;;8.10;;
11879;SDS011;5999;43.256;27.816;2022-11-15T03:59:07;12.80;;;6.87;;
11879;SDS011;5999;43.256;27.816;2022-11-15T04:01:34;12.37;;;7.00;;
11879;SDS011;5999;43.256;27.816;2022-11-15T04:04:00;11.40;;;7.13;;
11879;SDS011;5999;43.256;27.816;2022-11-15T04:06:27;9.47;;;6.57;;
11879;SDS011;5999;43.256;27.816;2022-11-15T04:08:55;11.53;;;7.40;;
11879;SDS011;5999;43.256;27.816;2022-11-15T04:11:22;10.43;;;7.07;;
11879;SDS011;5999;43.256;27.816;2022-11-15T04:13:49;11.03;;;7.73;;
11879;SDS011;5999;43.256;27.816;2022-11-15T04:16:15;11.67;;;8.10;;
11879;SDS011;5999;43.256;27.816;2022-11-15T04:18:42;10.07;;;7.60;;
11879;SDS011;5999;43.256;27.816;2022-11-15T04:21:09;11.87;;;8.07;;
11879;SDS011;5999;43.256;27.816;2022-11-15T04:23:55;11.53;;;7.73;;
11879;SDS011;5999;43.256;27.816;2022-11-15T04:26:40;12.10;;;8.47;;
11879;SDS011;5999;43.256;27.816;2022-11-15T04:29:07;16.77;;;11.10;;
11879;SDS011;5999;43.256;27.816;2022-11-15T04:31:52;17.97;;;12.13;;
11879;SDS011;5999;43.256;27.816;2022-11-15T04:34:19;18.80;;;13.10;;
11879;SDS011;5999;43.256;27.816;2022-11-15T04:36:46;16.47;;;10.93;;
11879;SDS011;5999;43.256;27.816;2022-11-15T04:39:31;11.77;;;7.50;;
11879;SDS011;5999;43.256;27.816;2022-11-15T04:41:58;11.77;;;7.90;;
11879;SDS011;5999;43.256;27.816;2022-11-15T04:44:25;12.00;;;7.27;;
11879;SDS011;5999;43.256;27.816;2022-11-15T04:46:52;13.97;;;7.90;;
11879;SDS011;5999;43.256;27.816;2022-11-15T04:49:19;14.37;;;7.53;;
11879;SDS011;5999;43.256;27.816;2022-11-15T04:51:46;16.90;;;9.00;;
11879;SDS011;5999;43.256;27.816;2022-11-15T04:54:13;17.03;;;8.93;;
11879;SDS011;5999;43.256;27.816;2022-11-15T04:56:40;16.73;;;9.20;;
11879;SDS011;5999;43.256;27.816;2022-11-15T04:59:07;18.93;;;9.73;;
11879;SDS011;5999;43.256;27.816;2022-11-15T05:01:34;18.60;;;8.80;;
11879;SDS011;5999;43.256;27.816;2022-11-15T05:04:01;21.50;;;10.00;;
11879;SDS011;5999;43.256;27.816;2022-11-15T05:06:46;19.83;;;10.53;;
11879;SDS011;5999;43.256;27.816;2022-11-15T05:09:14;21.17;;;10.83;;
11879;SDS011;5999;43.256;27.816;2022-11-15T05:11:42;22.63;;;11.80;;
11879;SDS011;5999;43.256;27.816;2022-11-15T05:14:09;20.30;;;10.30;;
11879;SDS011;5999;43.256;27.816;2022-11-15T05:16:36;21.53;;;10.37;;
11879;SDS011;5999;43.256;27.816;2022-11-15T05:19:03;19.30;;;10.27;;
11879;SDS011;5999;43.256;27.816;2022-11-15T05:21:31;19.43;;;9.77;;
11879;SDS011;5999;43.256;27.816;2022-11-15T05:23:59;17.17;;;9.80;;
11879;SDS011;5999;43.256;27.816;2022-11-15T05:26:27;15.70;;;9.57;;
11879;SDS011;5999;43.256;27.816;2022-11-15T05:28:55;14.57;;;8.70;;
11879;SDS011;5999;43.256;27.816;2022-11-15T05:31:23;17.03;;;8.40;;
11879;SDS011;5999;43.256;27.816;2022-11-15T05:33:51;76.80;;;10.97;;
11879;SDS011;5999;43.256;27.816;2022-11-15T05:36:20;35.13;;;19.53;;
11879;SDS011;5999;43.256;27.816;2022-11-15T05:38:53;20.97;;;11.30;;
11879;SDS011;5999;43.256;27.816;2022-11-15T05:41:20;13.77;;;8.40;;
11879;SDS011;5999;43.256;27.816;2022-11-15T05:43:51;16.23;;;8.83;;
11879;SDS011;5999;43.256;27.816;2022-11-15T05:46:23;15.60;;;8.77;;
11879;SDS011;5999;43.256;27.816;2022-11-15T05:48:50;12.97;;;7.63;;
11879;SDS011;5999;43.256;27.816;2022-11-15T05:51:18;13.33;;;7.80;;
11879;SDS011;5999;43.256;27.816;2022-11-15T05:53:48;17.03;;;7.30;;
11879;SDS011;5999;43.256;27.816;2022-11-15T05:56:16;15.17;;;7.97;;
11879;SDS011;5999;43.256;27.816;2022-11-15T05:58:43;12.97;;;7.83;;
11879;SDS011;5999;43.256;27.816;2022-11-15T06:01:10;10.17;;;6.87;;
11879;SDS011;5999;43.256;27.816;2022-11-15T06:03:38;18.37;;;10.37;;
11879;SDS011;5999;43.256;27.816;2022-11-15T06:06:05;25.17;;;11.60;;
11879;SDS011;5999;43.256;27.816;2022-11-15T06:08:32;15.77;;;9.27;;
11879;SDS011;5999;43.256;27.816;2022-11-15T06:11:03;21.03;;;10.77;;
11879;SDS011;5999;43.256;27.816;2022-11-15T06:13:30;13.03;;;7.57;;
11879;SDS011;5999;43.256;27.816;2022-11-15T06:15:57;11.80;;;7.23;;
11879;SDS011;5999;43.256;27.816;2022-11-15T06:18:24;11.40;;;7.90;;
11879;SDS011;5999;43.256;27.816;2022-11-15T06:20:52;10.67;;;6.77;;
11879;SDS011;5999;43.256;27.816;2022-11-15T06:23:19;10.60;;;6.60;;
11879;SDS011;5999;43.256;27.816;2022-11-15T06:25:46;11.00;;;6.90;;
11879;SDS011;5999;43.256;27.816;2022-11-15T06:28:13;12.63;;;8.20;;
11879;SDS011;5999;43.256;27.816;2022-11-15T06:30:40;16.57;;;10.17;;
11879;SDS011;5999;43.256;27.816;2022-11-15T06:33:07;13.33;;;9.37;;
11879;SDS011;5999;43.256;27.816;2022-11-15T06:35:34;14.90;;;8.03;;
11879;SDS011;5999;43.256;27.816;2022-11-15T06:38:03;16.17;;;8.83;;
11879;SDS011;5999;43.256;27.816;2022-11-15T06:40:33;20.07;;;12.53;;
11879;SDS011;5999;43.256;27.816;2022-11-15T06:43:01;13.97;;;8.90;;
11879;SDS011;5999;43.256;27.816;2022-11-15T06:45:29;16.53;;;10.43;;
11879;SDS011;5999;43.256;27.816;2022-11-15T06:47:56;11.47;;;7.00;;
11879;SDS011;5999;43.256;27.816;2022-11-15T06:50:23;9.57;;;6.60;;
11879;SDS011;5999;43.256;27.816;2022-11-15T06:52:50;11.53;;;7.50;;
11879;SDS011;5999;43.256;27.816;2022-11-15T06:55:18;11.43;;;7.90;;
11879;SDS011;5999;43.256;27.816;2022-11-15T06:57:48;10.27;;;6.90;;
11879;SDS011;5999;43.256;27.816;2022-11-15T07:00:17;12.10;;;8.50;;
11879;SDS011;5999;43.256;27.816;2022-11-15T07:02:45;9.10;;;6.23;;
11879;SDS011;5999;43.256;27.816;2022-11-15T07:05:13;11.57;;;6.40;;
11879;SDS011;5999;43.256;27.816;2022-11-15T07:07:41;10.40;;;6.13;;
11879;SDS011;5999;43.256;27.816;2022-11-15T07:10:08;23.53;;;13.43;;
11879;SDS011;5999;43.256;27.816;2022-11-15T07:12:36;16.60;;;9.83;;
11879;SDS011;5999;43.256;27.816;2022-11-15T07:15:03;11.87;;;7.63;;
11879;SDS011;5999;43.256;27.816;2022-11-15T07:17:31;14.53;;;9.03;;
11879;SDS011;5999;43.256;27.816;2022-11-15T07:19:58;15.37;;;9.50;;
11879;SDS011;5999;43.256;27.816;2022-11-15T07:22:25;13.73;;;8.47;;
11879;SDS011;5999;43.256;27.816;2022-11-15T07:24:52;13.13;;;8.37;;
11879;SDS011;5999;43.256;27.816;2022-11-15T07:27:19;13.10;;;7.80;;
11879;SDS011;5999;43.256;27.816;2022-11-15T07:29:46;10.37;;;6.80;;
11879;SDS011;5999;43.256;27.816;2022-11-15T07:32:13;14.43;;;8.57;;
11879;SDS011;5999;43.256;27.816;2022-11-15T07:34:40;10.10;;;7.37;;
11879;SDS011;5999;43.256;27.816;2022-11-15T07:37:07;12.43;;;8.60;;
11879;SDS011;5999;43.256;27.816;2022-11-15T07:39:34;20.47;;;11.97;;
11879;SDS011;5999;43.256;27.816;2022-11-15T07:42:01;27.60;;;15.33;;
11879;SDS011;5999;43.256;27.816;2022-11-15T07:44:47;37.10;;;19.90;;
11879;SDS011;5999;43.256;27.816;2022-11-15T07:47:14;37.77;;;19.60;;
11879;SDS011;5999;43.256;27.816;2022-11-15T07:49:41;26.43;;;13.27;;
11879;SDS011;5999;43.256;27.816;2022-11-15T07:52:08;13.40;;;8.10;;
11879;SDS011;5999;43.256;27.816;2022-11-15T07:54:34;10.50;;;7.63;;
11879;SDS011;5999;43.256;27.816;2022-11-15T07:57:01;10.47;;;7.20;;
11879;SDS011;5999;43.256;27.816;2022-11-15T07:59:28;10.90;;;7.90;;
11879;SDS011;5999;43.256;27.816;2022-11-15T08:01:56;10.67;;;7.07;;
11879;SDS011;5999;43.256;27.816;2022-11-15T08:04:24;8.23;;;6.00;;
11879;SDS011;5999;43.256;27.816;2022-11-15T08:06:51;15.63;;;9.93;;
11879;SDS011;5999;43.256;27.816;2022-11-15T08:09:17;10.67;;;7.27;;
11879;SDS011;5999;43.256;27.816;2022-11-15T08:11:44;10.40;;;7.80;;
11879;SDS011;5999;43.256;27.816;2022-11-15T08:14:11;12.20;;;7.43;;
11879;SDS011;5999;43.256;27.816;2022-11-15T08:16:38;10.23;;;6.30;;
11879;SDS011;5999;43.256;27.816;2022-11-15T08:19:06;13.50;;;6.60;;
11879;SDS011;5999;43.256;27.816;2022-11-15T08:21:32;11.60;;;6.30;;
11879;SDS011;5999;43.256;27.816;2022-11-15T08:24:00;8.20;;;4.03;;
11879;SDS011;5999;43.256;27.816;2022-11-15T08:26:27;7.87;;;5.27;;
11879;SDS011;5999;43.256;27.816;2022-11-15T08:28:55;8.70;;;6.23;;
11879;SDS011;5999;43.256;27.816;2022-11-15T08:31:22;12.27;;;7.50;;
11879;SDS011;5999;43.256;27.816;2022-11-15T08:33:48;23.43;;;11.10;;
11879;SDS011;5999;43.256;27.816;2022-11-15T08:36:16;10.17;;;5.90;;
11879;SDS011;5999;43.256;27.816;2022-11-15T08:38:43;8.20;;;5.50;;
11879;SDS011;5999;43.256;27.816;2022-11-15T08:41:11;13.93;;;7.57;;
11879;SDS011;5999;43.256;27.816;2022-11-15T08:43:42;14.03;;;8.10;;
11879;SDS011;5999;43.256;27.816;2022-11-15T08:46:10;9.13;;;6.47;;
11879;SDS011;5999;43.256;27.816;2022-11-15T08:48:38;8.93;;;5.43;;
11879;SDS011;5999;43.256;27.816;2022-11-15T08:51:05;6.93;;;5.70;;
11879;SDS011;5999;43.256;27.816;2022-11-15T08:53:33;13.57;;;10.03;;
11879;SDS011;5999;43.256;27.816;2022-11-15T08:56:01;17.67;;;7.40;;
11879;SDS011;5999;43.256;27.816;2022-11-15T08:58:28;14.47;;;6.80;;
11879;SDS011;5999;43.256;27.816;2022-11-15T09:00:55;31.90;;;13.90;;
11879;SDS011;5999;43.256;27.816;2022-11-15T09:03:22;33.57;;;16.83;;
11879;SDS011;5999;43.256;27.816;2022-11-15T09:05:53;10.47;;;6.50;;
11879;SDS011;5999;43.256;27.816;2022-11-15T09:08:21;10.93;;;6.60;;
11879;SDS011;5999;43.256;27.816;2022-11-15T09:10:48;10.37;;;6.10;;
11879;SDS011;5999;43.256;27.816;2022-11-15T09:13:15;9.57;;;6.67;;
11879;SDS011;5999;43.256;27.816;2022-11-15T09:15:42;81.13;;;37.50;;
11879;SDS011;5999;43.256;27.816;2022-11-15T09:18:09;21.93;;;12.33;;
11879;SDS011;5999;43.256;27.816;2022-11-15T09:20:36;12.57;;;6.83;;
11879;SDS011;5999;43.256;27.816;2022-11-15T09:23:04;18.00;;;9.33;;
11879;SDS011;5999;43.256;27.816;2022-11-15T09:25:31;10.83;;;7.10;;
11879;SDS011;5999;43.256;27.816;2022-11-15T09:27:59;11.27;;;7.70;;
11879;SDS011;5999;43.256;27.816;2022-11-15T09:30:26;9.60;;;6.20;;
11879;SDS011;5999;43.256;27.816;2022-11-15T09:32:52;21.80;;;12.93;;
11879;SDS011;5999;43.256;27.816;2022-11-15T09:35:19;12.70;;;7.80;;
11879;SDS011;5999;43.256;27.816;2022-11-15T09:37:46;7.73;;;4.60;;
11879;SDS011;5999;43.256;27.816;2022-11-15T09:40:13;9.87;;;5.60;;
11879;SDS011;5999;43.256;27.816;2022-11-15T09:42:58;10.77;;;6.17;;
11879;SDS011;5999;43.256;27.816;2022-11-15T09:45:55;9.47;;;6.73;;
11879;SDS011;5999;43.256;27.816;2022-11-15T09:51:21;11.47;;;7.20;;
11879;SDS011;5999;43.256;27.816;2022-11-15T09:53:55;12.27;;;7.67;;
11879;SDS011;5999;43.256;27.816;2022-11-15T09:56:30;10.23;;;7.33;;
11879;SDS011;5999;43.256;27.816;2022-11-15T09:59:01;6.73;;;5.33;;
11879;SDS011;5999;43.256;27.816;2022-11-15T10:01:49;5.67;;;4.53;;
11879;SDS011;5999;43.256;27.816;2022-11-15T10:04:23;6.37;;;4.50;;
11879;SDS011;5999;43.256;27.816;2022-11-15T10:06:52;23.80;;;15.53;;
11879;SDS011;5999;43.256;27.816;2022-11-15T10:09:28;16.00;;;10.13;;
11879;SDS011;5999;43.256;27.816;2022-11-15T10:12:01;19.47;;;11.07;;
11879;SDS011;5999;43.256;27.816;2022-11-15T10:14:29;5.43;;;3.97;;
11879;SDS011;5999;43.256;27.816;2022-11-15T10:19:53;8.83;;;3.93;;
11879;SDS011;5999;43.256;27.816;2022-11-15T10:22:29;17.37;;;11.37;;
11879;SDS011;5999;43.256;27.816;2022-11-15T10:25:10;33.20;;;22.40;;
11879;SDS011;5999;43.256;27.816;2022-11-15T10:27:43;6.17;;;4.43;;
11879;SDS011;5999;43.256;27.816;2022-11-15T10:30:15;12.37;;;7.47;;
11879;SDS011;5999;43.256;27.816;2022-11-15T10:32:44;5.97;;;4.03;;
11879;SDS011;5999;43.256;27.816;2022-11-15T10:35:16;23.83;;;10.17;;
11879;SDS011;5999;43.256;27.816;2022-11-15T10:37:49;21.00;;;13.70;;
11879;SDS011;5999;43.256;27.816;2022-11-15T10:40:17;15.87;;;10.83;;
11879;SDS011;5999;43.256;27.816;2022-11-15T10:42:46;6.13;;;4.60;;
11879;SDS011;5999;43.256;27.816;2022-11-15T10:45:24;14.33;;;10.53;;
11879;SDS011;5999;43.256;27.816;2022-11-15T10:47:53;12.67;;;7.40;;
11879;SDS011;5999;43.256;27.816;2022-11-15T10:50:44;17.47;;;9.87;;
11879;SDS011;5999;43.256;27.816;2022-11-15T10:53:15;15.03;;;10.07;;
11879;SDS011;5999;43.256;27.816;2022-11-15T10:55:48;6.40;;;4.30;;
11879;SDS011;5999;43.256;27.816;2022-11-15T10:58:21;16.40;;;10.73;;
11879;SDS011;5999;43.256;27.816;2022-11-15T11:00:57;9.17;;;5.20;;
11879;SDS011;5999;43.256;27.816;2022-11-15T11:03:36;8.83;;;4.47;;
11879;SDS011;5999;43.256;27.816;2022-11-15T11:06:05;6.33;;;4.33;;
11879;SDS011;5999;43.256;27.816;2022-11-15T11:08:34;5.50;;;4.17;;
11879;SDS011;5999;43.256;27.816;2022-11-15T11:11:02;5.80;;;4.30;;
11879;SDS011;5999;43.256;27.816;2022-11-15T11:13:31;6.27;;;3.97;;
11879;SDS011;5999;43.256;27.816;2022-11-15T11:16:07;5.90;;;3.97;;
11879;SDS011;5999;43.256;27.816;2022-11-15T11:19:00;7.37;;;3.70;;
11879;SDS011;5999;43.256;27.816;2022-11-15T11:21:37;10.70;;;5.07;;
11879;SDS011;5999;43.256;27.816;2022-11-15T11:24:14;4.87;;;3.37;;
11879;SDS011;5999;43.256;27.816;2022-11-15T11:26:54;5.70;;;3.67;;
11879;SDS011;5999;43.256;27.816;2022-11-15T11:29:38;4.10;;;3.40;;
11879;SDS011;5999;43.256;27.816;2022-11-15T11:32:23;8.57;;;5.57;;
11879;SDS011;5999;43.256;27.816;2022-11-15T11:35:01;6.33;;;4.77;;
11879;SDS011;5999;43.256;27.816;2022-11-15T11:37:39;7.27;;;3.87;;
11879;SDS011;5999;43.256;27.816;2022-11-15T11:40:16;4.87;;;3.37;;
11879;SDS011;5999;43.256;27.816;2022-11-15T11:42:55;4.17;;;3.37;;
11879;SDS011;5999;43.256;27.816;2022-11-15T11:45:41;6.87;;;4.70;;
11879;SDS011;5999;43.256;27.816;2022-11-15T11:48:23;4.73;;;3.60;;
11879;SDS011;5999;43.256;27.816;2022-11-15T11:51:01;17.10;;;9.60;;
11879;SDS011;5999;43.256;27.816;2022-11-15T11:53:35;14.90;;;8.53;;
11879;SDS011;5999;43.256;27.816;2022-11-15T11:56:13;6.93;;;3.93;;
11879;SDS011;5999;43.256;27.816;2022-11-15T11:58:45;11.17;;;6.70;;
11879;SDS011;5999;43.256;27.816;2022-11-15T12:01:14;9.40;;;6.33;;
11879;SDS011;5999;43.256;27.816;2022-11-15T12:03:49;6.60;;;4.20;;
11879;SDS011;5999;43.256;27.816;2022-11-15T12:06:23;7.70;;;4.43;;
11879;SDS011;5999;43.256;27.816;2022-11-15T12:08:58;14.00;;;7.63;;
11879;SDS011;5999;43.256;27.816;2022-11-15T12:11:32;7.40;;;4.13;;
11879;SDS011;5999;43.256;27.816;2022-11-15T12:14:21;4.77;;;3.67;;
11879;SDS011;5999;43.256;27.816;2022-11-15T12:16:58;215.13;;;98.30;;
11879;SDS011;5999;43.256;27.816;2022-11-15T12:19:26;6.83;;;4.47;;
11879;SDS011;5999;43.256;27.816;2022-11-15T12:21:56;4.40;;;2.97;;
11879;SDS011;5999;43.256;27.816;2022-11-15T12:24:30;6.27;;;4.10;;
11879;SDS011;5999;43.256;27.816;2022-11-15T12:27:01;6.30;;;3.70;;
11879;SDS011;5999;43.256;27.816;2022-11-15T12:29:33;4.47;;;3.73;;
11879;SDS011;5999;43.256;27.816;2022-11-15T12:32:04;4.23;;;3.20;;
11879;SDS011;5999;43.256;27.816;2022-11-15T12:34:43;8.73;;;6.30;;
11879;SDS011;5999;43.256;27.816;2022-11-15T12:42:59;4.73;;;2.93;;
11879;SDS011;5999;43.256;27.816;2022-11-15T12:45:37;6.60;;;3.60;;
11879;SDS011;5999;43.256;27.816;2022-11-15T12:51:22;11.27;;;5.27;;
11879;SDS011;5999;43.256;27.816;2022-11-15T12:57:27;9.70;;;3.20;;
11879;SDS011;5999;43.256;27.816;2022-11-15T13:00:16;8.47;;;7.00;;
11879;SDS011;5999;43.256;27.816;2022-11-15T13:03:17;9.77;;;4.97;;
11879;SDS011;5999;43.256;27.816;2022-11-15T13:05:55;6.73;;;4.37;;
11879;SDS011;5999;43.256;27.816;2022-11-15T13:08:44;5.40;;;3.97;;
11879;SDS011;5999;43.256;27.816;2022-11-15T13:17:10;13.90;;;7.67;;
11879;SDS011;5999;43.256;27.816;2022-11-15T13:19:59;48.53;;;17.77;;
11879;SDS011;5999;43.256;27.816;2022-11-15T13:22:39;77.37;;;50.50;;
11879;SDS011;5999;43.256;27.816;2022-11-15T13:25:18;10.23;;;6.00;;
11879;SDS011;5999;43.256;27.816;2022-11-15T13:27:56;13.90;;;9.57;;
11879;SDS011;5999;43.256;27.816;2022-11-15T13:30:24;8.93;;;6.07;;
11879;SDS011;5999;43.256;27.816;2022-11-15T13:32:53;7.23;;;5.03;;
11879;SDS011;5999;43.256;27.816;2022-11-15T13:35:21;9.93;;;5.43;;
11879;SDS011;5999;43.256;27.816;2022-11-15T13:37:49;15.73;;;8.67;;
11879;SDS011;5999;43.256;27.816;2022-11-15T13:40:25;24.73;;;18.00;;
11879;SDS011;5999;43.256;27.816;2022-11-15T13:42:55;24.13;;;14.03;;
11879;SDS011;5999;43.256;27.816;2022-11-15T13:45:23;11.07;;;7.07;;
11879;SDS011;5999;43.256;27.816;2022-11-15T13:47:52;24.53;;;19.40;;
11879;SDS011;5999;43.256;27.816;2022-11-15T13:50:24;10.27;;;6.40;;
11879;SDS011;5999;43.256;27.816;2022-11-15T13:52:56;10.40;;;6.23;;
11879;SDS011;5999;43.256;27.816;2022-11-15T13:55:27;19.00;;;10.27;;
11879;SDS011;5999;43.256;27.816;2022-11-15T13:57:58;14.33;;;9.57;;
11879;SDS011;5999;43.256;27.816;2022-11-15T14:00:32;17.20;;;8.80;;
11879;SDS011;5999;43.256;27.816;2022-11-15T14:03:10;25.33;;;13.27;;
11879;SDS011;5999;43.256;27.816;2022-11-15T14:05:43;111.33;;;60.67;;
11879;SDS011;5999;43.256;27.816;2022-11-15T14:08:21;114.27;;;59.80;;
11879;SDS011;5999;43.256;27.816;2022-11-15T14:10:49;86.77;;;41.57;;
11879;SDS011;5999;43.256;27.816;2022-11-15T14:13:33;20.07;;;14.17;;
11879;SDS011;5999;43.256;27.816;2022-11-15T14:18:47;10.23;;;6.90;;
11879;SDS011;5999;43.256;27.816;2022-11-15T14:21:15;14.37;;;6.33;;
11879;SDS011;5999;43.256;27.816;2022-11-15T14:23:44;17.17;;;10.60;;
11879;SDS011;5999;43.256;27.816;2022-11-15T14:26:25;12.03;;;8.23;;
11879;SDS011;5999;43.256;27.816;2022-11-15T14:28:54;17.17;;;11.27;;
11879;SDS011;5999;43.256;27.816;2022-11-15T14:31:21;15.50;;;9.87;;
11879;SDS011;5999;43.256;27.816;2022-11-15T14:33:48;20.23;;;11.90;;
11879;SDS011;5999;43.256;27.816;2022-11-15T14:36:16;15.77;;;9.30;;
11879;SDS011;5999;43.256;27.816;2022-11-15T14:38:44;37.63;;;18.57;;
11879;SDS011;5999;43.256;27.816;2022-11-15T14:41:17;50.70;;;22.70;;
11879;SDS011;5999;43.256;27.816;2022-11-15T14:43:47;61.87;;;26.80;;
11879;SDS011;5999;43.256;27.816;2022-11-15T14:46:14;97.43;;;41.03;;
11879;SDS011;5999;43.256;27.816;2022-11-15T14:48:41;160.70;;;60.60;;
11879;SDS011;5999;43.256;27.816;2022-11-15T14:51:10;167.20;;;64.80;;
11879;SDS011;5999;43.256;27.816;2022-11-15T14:53:39;136.40;;;54.10;;
11879;SDS011;5999;43.256;27.816;2022-11-15T14:56:06;117.90;;;51.97;;
11879;SDS011;5999;43.256;27.816;2022-11-15T14:58:34;75.47;;;32.00;;
11879;SDS011;5999;43.256;27.816;2022-11-15T15:01:02;70.13;;;31.47;;
11879;SDS011;5999;43.256;27.816;2022-11-15T15:03:36;25.60;;;11.83;;
11879;SDS011;5999;43.256;27.816;2022-11-15T15:06:03;27.10;;;10.43;;
11879;SDS011;5999;43.256;27.816;2022-11-15T15:08:30;43.87;;;18.93;;
11879;SDS011;5999;43.256;27.816;2022-11-15T15:10:57;37.90;;;17.87;;
11879;SDS011;5999;43.256;27.816;2022-11-15T15:13:25;68.70;;;30.57;;
11879;SDS011;5999;43.256;27.816;2022-11-15T15:15:53;22.47;;;12.13;;
11879;SDS011;5999;43.256;27.816;2022-11-15T15:18:21;47.53;;;27.67;;
11879;SDS011;5999;43.256;27.816;2022-11-15T15:20:49;38.10;;;24.20;;
11879;SDS011;5999;43.256;27.816;2022-11-15T15:23:21;18.80;;;10.63;;
11879;SDS011;5999;43.256;27.816;2022-11-15T15:25:50;26.10;;;13.47;;
11879;SDS011;5999;43.256;27.816;2022-11-15T15:28:18;23.07;;;12.03;;